createdAt,value
2022-10-20T00:00:54.749Z,6.71
2022-10-20T00:03:21.465Z,6.70
2022-10-20T00:05:48.087Z,6.72
2022-10-20T00:08:14.724Z,6.74
2022-10-20T00:10:41.344Z,6.76
2022-10-20T00:13:08.183Z,6.76
2022-10-20T00:15:35.015Z,6.77
2022-10-20T00:18:01.638Z,6.78
2022-10-20T00:20:28.230Z,6.80
2022-10-20T00:22:54.771Z,6.79
2022-10-20T00:25:21.615Z,6.78
2022-10-20T00:27:48.261Z,6.74
2022-10-20T00:30:14.839Z,6.73
2022-10-20T00:32:41.429Z,6.74
2022-10-20T00:35:08.221Z,6.75
2022-10-20T00:37:34.846Z,6.79
2022-10-20T00:40:01.450Z,6.78
2022-10-20T00:42:28.107Z,6.75
2022-10-20T00:44:54.756Z,6.74
2022-10-20T00:47:40.265Z,6.72
2022-10-20T00:50:12.668Z,6.71
2022-10-20T00:52:39.978Z,6.72
2022-10-20T00:55:07.624Z,6.69
2022-10-20T00:57:34.894Z,6.68
2022-10-20T01:00:02.097Z,6.68
2022-10-20T01:02:30.065Z,6.74
2022-10-20T01:04:56.640Z,6.71
2022-10-20T01:07:23.245Z,6.68
2022-10-20T01:09:50.191Z,6.67
2022-10-20T01:12:25.187Z,6.63
2022-10-20T01:15:12.011Z,6.62
2022-10-20T01:17:38.760Z,6.65
2022-10-20T01:20:18.990Z,6.67
2022-10-20T01:22:48.370Z,6.64
2022-10-20T01:25:33.212Z,6.62
2022-10-20T01:28:04.099Z,6.62
2022-10-20T01:30:32.898Z,6.59
2022-10-20T01:33:02.330Z,6.57
2022-10-20T01:35:36.376Z,6.56
2022-10-20T01:38:03.079Z,6.57
2022-10-20T01:40:36.570Z,6.56
2022-10-20T01:43:06.398Z,6.55
2022-10-20T01:45:34.951Z,6.54
2022-10-20T01:48:02.864Z,6.52
2022-10-20T01:50:29.629Z,6.49
2022-10-20T01:53:00.264Z,6.48
2022-10-20T01:55:26.866Z,6.47
2022-10-20T01:58:05.424Z,6.46
2022-10-20T02:00:34.720Z,6.44
2022-10-20T02:03:04.037Z,6.44
2022-10-20T02:05:33.800Z,6.44
2022-10-20T02:08:07.382Z,6.43
2022-10-20T02:10:39.245Z,6.43
2022-10-20T02:13:07.182Z,6.44
2022-10-20T02:15:37.024Z,6.44
2022-10-20T02:18:06.527Z,6.44
2022-10-20T02:20:33.300Z,6.45
2022-10-20T02:23:00.725Z,6.45
2022-10-20T02:25:28.233Z,6.47
2022-10-20T02:27:55.533Z,6.46
2022-10-20T02:30:22.410Z,6.48
2022-10-20T02:32:52.641Z,6.48
2022-10-20T02:35:21.936Z,6.45
2022-10-20T02:37:48.517Z,6.45
2022-10-20T02:40:15.668Z,6.47
2022-10-20T02:42:43.392Z,6.45
2022-10-20T02:45:10.381Z,6.47
2022-10-20T02:47:37.211Z,6.44
2022-10-20T02:50:04.276Z,6.45
2022-10-20T02:52:30.897Z,6.45
2022-10-20T02:54:57.627Z,6.42
2022-10-20T02:57:24.209Z,6.40
2022-10-20T02:59:50.893Z,6.40
2022-10-20T03:02:17.504Z,6.41
2022-10-20T03:04:44.218Z,6.44
2022-10-20T03:07:11.254Z,6.43
2022-10-20T03:09:37.892Z,6.43
2022-10-20T03:12:04.557Z,6.45
2022-10-20T03:14:31.147Z,6.44
2022-10-20T03:16:57.731Z,6.46
2022-10-20T03:19:24.314Z,6.44
2022-10-20T03:21:50.872Z,6.44
2022-10-20T03:24:17.531Z,6.46
2022-10-20T03:26:44.058Z,6.45
2022-10-20T03:29:10.621Z,6.34
2022-10-20T03:31:37.270Z,6.34
2022-10-20T03:34:03.851Z,6.27
2022-10-20T03:36:30.416Z,6.26
2022-10-20T03:38:57.021Z,6.28
2022-10-20T03:41:23.559Z,6.24
2022-10-20T03:43:50.238Z,6.21
2022-10-20T03:46:16.800Z,6.27
2022-10-20T03:48:43.362Z,6.24
2022-10-20T03:51:12.066Z,6.24
2022-10-20T03:53:38.646Z,6.23
2022-10-20T03:56:09.513Z,6.17
2022-10-20T03:58:36.304Z,6.14
2022-10-20T04:01:03.463Z,6.11
2022-10-20T04:03:30.161Z,6.07
2022-10-20T04:05:56.761Z,6.07
2022-10-20T04:08:23.337Z,6.05
2022-10-20T04:10:49.881Z,6.06
2022-10-20T04:13:16.517Z,6.09
2022-10-20T04:15:43.041Z,6.13
2022-10-20T04:18:09.649Z,6.09
2022-10-20T04:20:37.423Z,6.09
2022-10-20T04:23:05.976Z,6.08
2022-10-20T04:25:32.561Z,6.02
2022-10-20T04:27:59.973Z,6.07
2022-10-20T04:30:26.599Z,6.07
2022-10-20T04:32:53.133Z,5.88
2022-10-20T04:35:19.708Z,5.79
2022-10-20T04:37:46.248Z,5.78
2022-10-20T04:40:12.810Z,5.68
2022-10-20T04:42:39.387Z,5.62
2022-10-20T04:45:06.246Z,5.60
2022-10-20T04:47:33.991Z,5.54
2022-10-20T04:50:00.731Z,5.51
2022-10-20T04:52:28.450Z,5.52
2022-10-20T04:54:55.041Z,5.49
2022-10-20T04:57:21.603Z,5.50
2022-10-20T04:59:48.144Z,5.57
2022-10-20T05:02:14.675Z,5.59
2022-10-20T05:04:41.238Z,5.54
2022-10-20T05:07:07.796Z,5.50
2022-10-20T05:09:34.436Z,5.52
2022-10-20T05:12:01.077Z,5.55
2022-10-20T05:14:27.731Z,5.62
2022-10-20T05:16:54.300Z,5.63
2022-10-20T05:19:20.895Z,5.65
2022-10-20T05:21:47.500Z,5.70
2022-10-20T05:24:18.260Z,5.69
2022-10-20T05:26:47.832Z,5.68
2022-10-20T05:29:14.465Z,5.75
2022-10-20T05:31:42.187Z,5.79
2022-10-20T05:34:09.437Z,5.81
2022-10-20T05:36:36.062Z,5.83
2022-10-20T05:39:02.900Z,5.93
2022-10-20T05:41:33.391Z,6.01
2022-10-20T05:44:04.584Z,6.08
2022-10-20T05:46:32.458Z,6.13
2022-10-20T05:48:59.930Z,6.13
2022-10-20T05:51:28.526Z,6.08
2022-10-20T05:53:55.563Z,6.04
2022-10-20T05:56:22.542Z,6.05
2022-10-20T05:58:49.530Z,6.09
2022-10-20T06:01:24.226Z,6.12
2022-10-20T06:03:52.321Z,6.09
2022-10-20T06:06:19.532Z,6.03
2022-10-20T06:08:46.580Z,6.01
2022-10-20T06:11:13.702Z,5.95
2022-10-20T06:13:40.412Z,5.90
2022-10-20T06:16:09.167Z,5.92
2022-10-20T06:18:38.744Z,5.95
2022-10-20T06:21:10.023Z,5.99
2022-10-20T06:23:36.607Z,5.98
2022-10-20T06:26:04.940Z,5.97
2022-10-20T06:28:32.412Z,5.98
2022-10-20T06:30:59.674Z,5.98
2022-10-20T06:33:29.260Z,5.99
2022-10-20T06:36:01.735Z,6.03
2022-10-20T06:38:28.621Z,6.05
2022-10-20T06:40:55.322Z,6.04
2022-10-20T06:43:22.099Z,6.02
2022-10-20T06:45:55.730Z,6.03
2022-10-20T06:48:22.450Z,6.06
2022-10-20T06:50:49.098Z,6.04
2022-10-20T06:53:15.830Z,6.02
2022-10-20T06:55:42.411Z,6.07
2022-10-20T06:58:08.973Z,6.07
2022-10-20T07:00:35.540Z,6.12
2022-10-20T07:03:02.190Z,6.24
2022-10-20T07:05:30.038Z,6.26
2022-10-20T07:07:56.581Z,6.34
2022-10-20T07:10:23.120Z,6.31
2022-10-20T07:12:49.756Z,6.25
2022-10-20T07:15:16.404Z,6.13
2022-10-20T07:17:42.971Z,6.01
2022-10-20T07:20:10.067Z,5.99
2022-10-20T07:22:38.562Z,6.02
2022-10-20T07:25:06.994Z,6.08
2022-10-20T07:27:34.145Z,6.15
2022-10-20T07:30:00.784Z,6.22
2022-10-20T07:32:27.453Z,6.20
2022-10-20T07:34:54.285Z,6.07
2022-10-20T07:37:20.913Z,5.91
2022-10-20T07:39:47.529Z,5.91
2022-10-20T07:42:14.168Z,5.93
2022-10-20T07:44:40.879Z,5.99
2022-10-20T07:47:07.441Z,5.92
2022-10-20T07:49:49.464Z,5.93
2022-10-20T07:52:16.719Z,6.09
2022-10-20T07:54:43.384Z,6.28
2022-10-20T07:57:10.054Z,6.45
2022-10-20T07:59:36.665Z,6.45
2022-10-20T08:02:03.967Z,6.59
2022-10-20T08:04:31.697Z,6.63
2022-10-20T08:06:59.406Z,6.73
2022-10-20T08:09:25.999Z,6.85
2022-10-20T08:11:55.394Z,6.97
2022-10-20T08:14:22.846Z,7.13
2022-10-20T08:19:37.148Z,6.63
2022-10-20T08:22:03.933Z,6.49
2022-10-20T08:24:30.529Z,6.43
2022-10-20T08:26:57.107Z,6.26
2022-10-20T08:29:23.665Z,6.42
2022-10-20T08:31:50.200Z,6.39
2022-10-20T08:34:16.793Z,6.34
2022-10-20T08:36:43.391Z,6.41
2022-10-20T08:39:09.962Z,6.48
2022-10-20T08:42:02.902Z,6.50
2022-10-20T08:44:27.434Z,6.50
2022-10-20T08:46:54.378Z,6.31
2022-10-20T08:49:32.939Z,6.23
2022-10-20T08:51:59.996Z,6.31
2022-10-20T08:54:26.576Z,6.15
2022-10-20T08:56:53.329Z,6.00
2022-10-20T08:59:28.555Z,5.88
2022-10-20T09:01:56.105Z,5.85
2022-10-20T09:04:25.158Z,5.85
2022-10-20T09:07:00.458Z,5.83
2022-10-20T09:09:28.986Z,5.82
2022-10-20T09:11:59.795Z,5.80
2022-10-20T09:14:26.663Z,5.83
2022-10-20T09:17:00.240Z,5.80
2022-10-20T09:19:27.643Z,5.77
2022-10-20T09:22:05.712Z,5.95
2022-10-20T09:24:35.149Z,5.82
2022-10-20T09:27:22.121Z,5.81
2022-10-20T09:29:48.883Z,5.79
2022-10-20T09:35:25.121Z,5.80
2022-10-20T09:37:57.587Z,5.70
2022-10-20T09:40:26.309Z,5.77
2022-10-20T09:42:54.893Z,5.76
2022-10-20T09:45:32.582Z,5.80
2022-10-20T09:48:01.625Z,5.85
2022-10-20T09:50:34.192Z,5.78
2022-10-20T09:53:01.910Z,5.68
2022-10-20T09:55:33.278Z,5.62
2022-10-20T09:58:01.581Z,5.63
2022-10-20T10:00:38.776Z,5.66
2022-10-20T10:03:09.046Z,5.60
2022-10-20T10:05:35.832Z,5.62
2022-10-20T10:08:02.428Z,5.59
2022-10-20T10:10:30.608Z,5.61
2022-10-20T10:13:00.905Z,5.60
2022-10-20T10:15:30.126Z,5.54
2022-10-20T10:17:57.370Z,5.58
2022-10-20T10:20:33.723Z,5.51
2022-10-20T10:23:17.124Z,5.52
2022-10-20T10:25:43.710Z,5.54
2022-10-20T10:28:28.663Z,5.65
2022-10-20T10:31:18.617Z,5.65
2022-10-20T10:33:45.488Z,5.64
2022-10-20T10:36:18.656Z,5.65
2022-10-20T10:38:45.201Z,5.66
2022-10-20T10:41:30.162Z,5.63
2022-10-20T10:44:10.309Z,5.68
2022-10-20T10:46:41.010Z,5.76
2022-10-20T10:49:07.636Z,5.85
2022-10-20T10:51:52.767Z,5.79
2022-10-20T10:54:19.499Z,5.84
2022-10-20T10:56:50.911Z,5.87
2022-10-20T10:59:17.460Z,5.85
2022-10-20T11:01:58.975Z,5.82
2022-10-20T11:04:28.664Z,5.70
2022-10-20T11:07:15.963Z,5.54
2022-10-20T11:09:48.932Z,5.61
2022-10-20T11:12:34.437Z,5.60
2022-10-20T11:15:09.923Z,5.67
2022-10-20T11:18:02.553Z,5.61
2022-10-20T11:20:32.168Z,5.60
2022-10-20T11:23:24.476Z,5.62
2022-10-20T11:26:11.224Z,5.63
2022-10-20T11:28:45.569Z,5.63
2022-10-20T11:31:34.063Z,5.72
2022-10-20T11:34:11.868Z,5.62
2022-10-20T11:36:49.953Z,5.62
2022-10-20T11:39:38.002Z,5.67
2022-10-20T11:42:18.796Z,5.74
2022-10-20T11:44:46.465Z,5.71
2022-10-20T11:47:15.149Z,5.74
2022-10-20T11:49:41.998Z,5.87
2022-10-20T11:52:27.480Z,5.87
2022-10-20T11:55:12.487Z,5.96
2022-10-20T11:57:45.202Z,5.91
2022-10-20T12:00:30.294Z,5.91
2022-10-20T12:03:15.448Z,5.87
2022-10-20T12:05:51.004Z,5.76
2022-10-20T12:08:30.283Z,5.78
2022-10-20T12:11:29.789Z,5.77
2022-10-20T12:14:14.587Z,5.85
2022-10-20T12:16:59.464Z,5.78
2022-10-20T12:19:31.054Z,5.78
2022-10-20T12:22:15.995Z,5.86
2022-10-20T12:25:02.505Z,5.84
2022-10-20T12:27:30.516Z,5.81
2022-10-20T12:29:58.623Z,5.79
2022-10-20T12:32:35.061Z,5.77
2022-10-20T12:35:10.845Z,5.78
2022-10-20T12:37:40.234Z,5.81
2022-10-20T12:40:09.058Z,5.74
2022-10-20T12:42:40.188Z,5.71
2022-10-20T12:45:08.262Z,5.71
2022-10-20T12:47:37.017Z,5.72
2022-10-20T12:50:22.492Z,5.72
2022-10-20T12:52:49.186Z,5.75
2022-10-20T12:55:18.539Z,5.77
2022-10-20T12:57:45.905Z,5.90
2022-10-20T13:00:22.031Z,5.90
2022-10-20T13:02:55.774Z,5.98
2022-10-20T13:05:41.850Z,6.04
2022-10-20T13:08:18.024Z,5.99
2022-10-20T13:10:44.787Z,5.92
2022-10-20T13:13:11.360Z,5.85
2022-10-20T13:15:43.679Z,5.83
2022-10-20T13:18:13.351Z,5.84
2022-10-20T13:20:45.960Z,5.87
2022-10-20T13:23:13.959Z,5.82
2022-10-20T13:25:43.861Z,5.77
2022-10-20T13:28:13.280Z,5.74
2022-10-20T13:30:58.268Z,5.73
2022-10-20T13:33:38.826Z,5.73
2022-10-20T13:36:33.166Z,5.76
2022-10-20T13:39:08.448Z,5.75
2022-10-20T13:41:43.438Z,5.76
2022-10-20T13:44:35.846Z,5.74
2022-10-20T13:47:21.022Z,5.70
2022-10-20T13:49:59.664Z,5.69
2022-10-20T13:52:29.224Z,5.73
2022-10-20T13:54:56.611Z,5.67
2022-10-20T13:57:28.182Z,5.71
2022-10-20T13:59:55.950Z,5.73
2022-10-20T14:02:32.952Z,5.59
2022-10-20T14:05:07.591Z,5.58
2022-10-20T14:07:43.789Z,5.58
2022-10-20T14:10:28.583Z,5.46
2022-10-20T14:12:55.881Z,5.43
2022-10-20T14:15:30.433Z,5.37
2022-10-20T14:18:07.393Z,5.42
2022-10-20T14:20:37.424Z,5.32
2022-10-20T14:23:04.726Z,5.26
2022-10-20T14:25:32.186Z,5.14
2022-10-20T14:27:59.340Z,5.11
2022-10-20T14:30:26.676Z,5.04
2022-10-20T14:32:53.787Z,5.01
2022-10-20T14:35:43.623Z,4.94
2022-10-20T14:38:16.024Z,4.98
2022-10-20T14:40:48.767Z,4.95
2022-10-20T14:43:18.208Z,4.90
2022-10-20T14:45:59.335Z,4.87
2022-10-20T14:48:33.640Z,4.84
2022-10-20T14:51:00.212Z,4.87
2022-10-20T14:53:27.425Z,4.85
2022-10-20T14:55:54.988Z,4.82
2022-10-20T14:58:56.137Z,4.82
2022-10-20T15:01:24.826Z,4.77
2022-10-20T15:06:42.245Z,4.82
2022-10-20T15:09:18.207Z,4.81
2022-10-20T15:11:44.988Z,4.72
2022-10-20T15:14:15.799Z,4.69
2022-10-20T15:16:46.307Z,4.77
2022-10-20T15:19:19.009Z,4.63
2022-10-20T15:21:46.017Z,4.61
2022-10-20T15:24:12.588Z,4.55
2022-10-20T15:26:39.160Z,4.48
2022-10-20T15:29:06.405Z,4.38
2022-10-20T15:31:33.038Z,4.39
2022-10-20T15:33:59.640Z,4.37
2022-10-20T15:36:29.561Z,4.27
2022-10-20T15:38:56.600Z,4.19
2022-10-20T15:41:25.325Z,4.11
2022-10-20T15:43:52.287Z,4.13
2022-10-20T15:46:19.110Z,4.06
2022-10-20T15:48:46.072Z,3.97
2022-10-20T15:51:19.349Z,3.88
2022-10-20T15:53:48.501Z,3.85
2022-10-20T15:56:15.206Z,3.93
2022-10-20T15:58:41.943Z,3.86
2022-10-20T16:01:09.540Z,3.87
2022-10-20T16:03:40.702Z,3.72
2022-10-20T16:06:07.823Z,3.77
2022-10-20T16:08:35.467Z,3.76
2022-10-20T16:11:02.991Z,3.76
2022-10-20T16:13:29.570Z,3.84
2022-10-20T16:15:56.205Z,3.79
2022-10-20T16:18:22.844Z,3.77
2022-10-20T16:20:49.550Z,3.74
2022-10-20T16:23:16.242Z,3.56
2022-10-20T16:25:42.893Z,3.47
2022-10-20T16:28:09.807Z,3.46
2022-10-20T16:30:36.445Z,3.49
2022-10-20T16:33:03.175Z,3.36
2022-10-20T16:35:29.807Z,3.34
2022-10-20T16:37:56.480Z,3.30
2022-10-20T16:40:23.078Z,3.12
2022-10-20T16:42:49.659Z,3.08
2022-10-20T16:45:16.402Z,3.14
2022-10-20T16:47:43.113Z,3.05
2022-10-20T16:50:09.931Z,3.03
2022-10-20T16:52:36.567Z,3.13
2022-10-20T16:55:03.286Z,2.96
2022-10-20T16:57:33.577Z,2.93
2022-10-20T17:00:00.477Z,2.96
2022-10-20T17:02:27.137Z,2.97
2022-10-20T17:04:53.754Z,3.01
2022-10-20T17:07:20.414Z,2.95
2022-10-20T17:09:47.048Z,3.00
2022-10-20T17:12:13.968Z,2.99
2022-10-20T17:14:43.642Z,3.00
2022-10-20T17:17:10.586Z,2.95
2022-10-20T17:19:37.213Z,2.94
2022-10-20T17:22:03.832Z,2.93
2022-10-20T17:24:30.450Z,2.96
2022-10-20T17:26:57.049Z,2.94
2022-10-20T17:29:25.956Z,3.00
2022-10-20T17:31:52.964Z,2.98
2022-10-20T17:34:19.627Z,2.84
2022-10-20T17:36:46.220Z,2.82
2022-10-20T17:39:14.168Z,2.75
2022-10-20T17:41:40.814Z,2.71
2022-10-20T17:44:08.448Z,2.72
2022-10-20T17:46:35.399Z,2.66
2022-10-20T17:49:02.252Z,2.60
2022-10-20T17:51:31.959Z,2.54
2022-10-20T17:54:01.180Z,2.56
2022-10-20T17:56:32.419Z,2.57
2022-10-20T17:58:59.854Z,2.48
2022-10-20T18:01:28.586Z,2.45
2022-10-20T18:04:05.612Z,2.58
2022-10-20T18:06:34.614Z,2.42
2022-10-20T18:09:04.048Z,2.43
2022-10-20T18:11:31.663Z,2.42
2022-10-20T18:14:00.011Z,2.31
2022-10-20T18:16:27.687Z,2.29
2022-10-20T18:21:25.403Z,2.34
2022-10-20T18:23:55.946Z,2.33
2022-10-20T18:26:22.734Z,2.30
2022-10-20T18:28:50.093Z,2.37
2022-10-20T18:31:18.423Z,2.31
2022-10-20T18:33:45.371Z,2.39
2022-10-20T18:36:13.200Z,2.44
2022-10-20T18:38:40.847Z,2.44
2022-10-20T18:41:11.002Z,2.40
2022-10-20T18:43:38.311Z,2.48
2022-10-20T18:46:05.655Z,2.54
2022-10-20T18:48:34.350Z,2.46
2022-10-20T18:51:01.725Z,2.42
2022-10-20T18:53:29.457Z,2.45
2022-10-20T18:56:00.044Z,2.42
2022-10-20T18:58:27.382Z,2.35
2022-10-20T19:00:58.026Z,2.38
2022-10-20T19:03:24.871Z,2.29
2022-10-20T19:05:57.105Z,2.22
2022-10-20T19:08:23.728Z,2.22
2022-10-20T19:10:50.338Z,2.21
2022-10-20T19:13:17.121Z,2.12
2022-10-20T19:15:43.690Z,2.04
2022-10-20T19:18:10.419Z,2.10
2022-10-20T19:20:37.075Z,2.11
2022-10-20T19:23:03.671Z,2.18
2022-10-20T19:25:30.292Z,2.08
2022-10-20T19:27:58.337Z,2.10
2022-10-20T19:30:25.024Z,2.06
2022-10-20T19:32:52.976Z,2.16
2022-10-20T19:35:19.629Z,2.05
2022-10-20T19:37:46.292Z,2.01
2022-10-20T19:40:12.952Z,2.01
2022-10-20T19:42:39.903Z,2.05
2022-10-20T19:45:06.869Z,2.03
2022-10-20T19:47:33.442Z,2.02
2022-10-20T19:50:00.045Z,1.89
2022-10-20T19:52:26.689Z,1.97
2022-10-20T19:54:53.429Z,1.91
2022-10-20T19:57:20.140Z,1.84
2022-10-20T19:59:46.839Z,1.85
2022-10-20T20:02:13.471Z,1.86
2022-10-20T20:04:40.521Z,1.81
2022-10-20T20:07:07.337Z,1.89
2022-10-20T20:09:34.062Z,1.94
2022-10-20T20:12:00.680Z,1.90
2022-10-20T20:14:27.311Z,1.85
2022-10-20T20:16:53.904Z,1.85
2022-10-20T20:19:20.596Z,1.99
2022-10-20T20:21:47.314Z,1.88
2022-10-20T20:24:14.717Z,1.94
2022-10-20T20:26:41.477Z,1.86
2022-10-20T20:29:08.216Z,1.86
2022-10-20T20:31:34.888Z,1.80
2022-10-20T20:34:01.696Z,1.77
2022-10-20T20:36:28.505Z,1.79
2022-10-20T20:38:57.428Z,1.83
2022-10-20T20:41:26.125Z,1.82
2022-10-20T20:43:52.705Z,1.67
2022-10-20T20:46:20.650Z,1.75
2022-10-20T20:48:47.379Z,1.67
2022-10-20T20:51:14.306Z,1.61
2022-10-20T20:53:41.097Z,1.67
2022-10-20T20:56:11.826Z,1.70
2022-10-20T20:58:38.727Z,1.62
2022-10-20T21:01:09.908Z,1.60
2022-10-20T21:03:36.838Z,1.63
2022-10-20T21:06:10.844Z,1.64
2022-10-20T21:08:39.079Z,1.60
2022-10-20T21:11:10.479Z,1.67
2022-10-20T21:13:37.490Z,1.68
2022-10-20T21:16:14.488Z,1.65
2022-10-20T21:18:42.205Z,1.70
2022-10-20T21:21:08.851Z,1.61
2022-10-20T21:23:35.658Z,1.57
2022-10-20T21:26:02.307Z,1.58
2022-10-20T21:28:28.908Z,1.58
2022-10-20T21:30:58.735Z,1.56
2022-10-20T21:33:27.840Z,1.56
2022-10-20T21:35:58.881Z,1.59
2022-10-20T21:38:29.240Z,1.58
2022-10-20T21:41:00.959Z,1.65
2022-10-20T21:43:28.866Z,1.62
2022-10-20T21:45:55.413Z,1.64
2022-10-20T21:48:22.049Z,1.62
2022-10-20T21:50:48.746Z,1.67
2022-10-20T21:53:16.073Z,1.70
2022-10-20T21:55:42.712Z,1.74
2022-10-20T21:58:09.308Z,1.74
2022-10-20T22:00:35.887Z,1.72
2022-10-20T22:03:02.589Z,1.75
2022-10-20T22:05:29.248Z,1.82
2022-10-20T22:07:55.800Z,1.87
2022-10-20T22:10:22.642Z,1.91
2022-10-20T22:12:49.369Z,1.89
2022-10-20T22:15:16.067Z,1.91
2022-10-20T22:17:42.737Z,1.88
2022-10-20T22:20:09.738Z,1.89
2022-10-20T22:22:36.501Z,1.93
2022-10-20T22:25:03.472Z,1.95
2022-10-20T22:27:31.796Z,1.96
2022-10-20T22:30:09.302Z,1.99
2022-10-20T22:32:36.271Z,1.97
2022-10-20T22:35:03.178Z,2.01
2022-10-20T22:37:29.995Z,1.99
2022-10-20T22:39:56.615Z,2.06
2022-10-20T22:42:24.883Z,2.12
2022-10-20T22:44:51.839Z,2.12
2022-10-20T22:47:18.440Z,2.15
2022-10-20T22:49:45.044Z,2.22
2022-10-20T22:52:11.802Z,2.27
2022-10-20T22:54:38.549Z,2.29
2022-10-20T22:57:05.101Z,2.32
2022-10-20T22:59:31.783Z,2.35
2022-10-20T23:01:58.449Z,2.36
2022-10-20T23:04:25.058Z,2.36
2022-10-20T23:06:51.669Z,2.24
2022-10-20T23:09:18.384Z,2.23
2022-10-20T23:11:45.030Z,2.10
2022-10-20T23:14:11.580Z,2.04
2022-10-20T23:16:38.227Z,2.07
2022-10-20T23:19:04.862Z,2.10
2022-10-20T23:21:31.586Z,2.10
2022-10-20T23:23:58.335Z,2.07
2022-10-20T23:26:24.941Z,1.99
2022-10-20T23:28:51.577Z,2.00
2022-10-20T23:31:19.635Z,2.11
2022-10-20T23:33:47.066Z,2.08
2022-10-20T23:36:14.575Z,2.09
2022-10-20T23:38:41.995Z,2.13
2022-10-20T23:41:08.873Z,2.12
2022-10-20T23:46:07.902Z,2.13
2022-10-20T23:48:34.912Z,2.08
2022-10-20T23:51:01.684Z,2.12
2022-10-20T23:53:28.257Z,2.04
2022-10-20T23:55:54.972Z,2.00
2022-10-20T23:58:23.167Z,1.81
